CheckWX is a tool to help pilots better visualize weather data.  It is not intended as a substitute for an official pre-flight weather briefing.

05:09:29 UTC

KHBI METAR
Asheboro Regional Airport
Asheboro, North Carolina, USA
Current

24 mins ago

KHBI 240445Z AUTO 00000KT 3SM BR OVC003 04/04 A3009 RMK AO2 T00440044
Observed
Feb-24 @ 04:45 UTC
Visibility
3 SM
Flight Rules
LIFR
Conditions
Mist
Cloud Levels
  • Overcast at 300' AGL
Temperature
C / 39°F
Dewpoint
C / 39°F
Humidity
100%
Altimeter
30.09" Hg
Pressure
1018.92 hPa
Previous

44 mins ago

KHBI 240425Z AUTO 00000KT 1 1/2SM BR OVC003 04/04 A3010 RMK AO2 T00430043
Observed
Feb-24 @ 04:25 UTC
Visibility
1 1/2 SM
Flight Rules
LIFR
Conditions
Mist
Cloud Levels
  • Overcast at 300' AGL
Temperature
C / 39°F
Dewpoint
C / 39°F
Humidity
100%
Altimeter
30.1" Hg
Pressure
1019.32 hPa
Previous

1 hour ago

KHBI 240345Z AUTO 00000KT 1 1/2SM BR OVC003 04/04 A3011 RMK AO2 T00420042
Observed
Feb-24 @ 03:45 UTC
Visibility
1 1/2 SM
Flight Rules
LIFR
Conditions
Mist
Cloud Levels
  • Overcast at 300' AGL
Temperature
C / 39°F
Dewpoint
C / 39°F
Humidity
100%
Altimeter
30.11" Hg
Pressure
1019.62 hPa